createdAt,value
2017-12-05T00:00:43.393Z,4.59
2017-12-05T00:01:49.096Z,4.61
2017-12-05T00:02:55.273Z,4.60
2017-12-05T00:04:01.488Z,4.60
2017-12-05T00:05:07.695Z,4.64
2017-12-05T00:06:14.565Z,4.65
2017-12-05T00:07:21.039Z,4.66
2017-12-05T00:08:27.204Z,4.60
2017-12-05T00:09:33.315Z,4.62
2017-12-05T00:10:39.464Z,4.63
2017-12-05T00:11:45.115Z,4.68
2017-12-05T00:12:50.910Z,4.73
2017-12-05T00:13:59.588Z,4.70
2017-12-05T00:15:07.737Z,4.72
2017-12-05T00:16:13.880Z,4.72
2017-12-05T00:17:20.046Z,4.76
2017-12-05T00:18:25.590Z,4.76
2017-12-05T00:19:31.762Z,4.71
2017-12-05T00:20:37.881Z,4.67
2017-12-05T00:21:43.970Z,4.64
2017-12-05T00:22:50.126Z,4.63
2017-12-05T00:23:55.955Z,4.62
2017-12-05T00:25:01.799Z,4.62
2017-12-05T00:26:07.967Z,4.71
2017-12-05T00:27:13.728Z,4.61
2017-12-05T00:28:19.606Z,4.61
2017-12-05T00:29:25.378Z,4.62
2017-12-05T00:30:31.698Z,4.64
2017-12-05T00:31:37.483Z,4.64
2017-12-05T00:32:43.215Z,4.64
2017-12-05T00:33:49.408Z,4.60
2017-12-05T00:34:55.182Z,4.69
2017-12-05T00:36:06.049Z,4.56
2017-12-05T00:37:15.638Z,4.62
2017-12-05T00:38:21.427Z,4.69
2017-12-05T00:39:27.534Z,4.76
2017-12-05T00:40:33.663Z,4.72
2017-12-05T00:41:45.479Z,4.64
2017-12-05T00:42:50.906Z,4.67
2017-12-05T00:43:56.752Z,4.68
2017-12-05T00:45:04.263Z,4.58
2017-12-05T00:46:10.089Z,4.63
2017-12-05T00:47:15.557Z,4.67
2017-12-05T00:48:20.979Z,4.67
2017-12-05T00:49:27.096Z,4.68
2017-12-05T00:50:33.291Z,4.66
2017-12-05T00:51:39.462Z,4.66
2017-12-05T00:52:45.620Z,4.72
2017-12-05T00:53:51.775Z,4.70
2017-12-05T00:54:57.702Z,4.64
2017-12-05T00:56:04.035Z,4.63
2017-12-05T00:57:10.157Z,4.70
2017-12-05T00:58:16.322Z,4.68
2017-12-05T00:59:22.455Z,4.65
2017-12-05T01:00:28.555Z,4.65
2017-12-05T01:01:34.524Z,4.66
2017-12-05T01:02:40.744Z,4.64
2017-12-05T01:03:46.907Z,4.62
2017-12-05T01:04:53.061Z,4.71
2017-12-05T01:05:59.343Z,4.69
2017-12-05T01:07:05.438Z,4.71
2017-12-05T01:08:11.543Z,4.68
2017-12-05T01:09:17.541Z,4.72
2017-12-05T01:10:29.566Z,4.77
2017-12-05T01:11:35.689Z,4.76
2017-12-05T01:12:41.845Z,4.79
2017-12-05T01:13:48.024Z,4.77
2017-12-05T01:14:54.147Z,4.77
2017-12-05T01:16:00.252Z,4.80
2017-12-05T01:17:06.456Z,4.83
2017-12-05T01:18:12.619Z,4.84
2017-12-05T01:19:18.731Z,4.81
2017-12-05T01:20:25.142Z,4.83
2017-12-05T01:21:31.250Z,4.87
2017-12-05T01:22:37.382Z,4.88
2017-12-05T01:23:43.542Z,4.89
2017-12-05T01:24:49.672Z,4.96
2017-12-05T01:25:55.871Z,4.97
2017-12-05T01:27:02.046Z,4.93
2017-12-05T01:28:13.096Z,4.92
2017-12-05T01:29:19.233Z,4.94
2017-12-05T01:30:25.352Z,4.90
2017-12-05T01:31:31.535Z,4.89
2017-12-05T01:32:37.654Z,4.83
2017-12-05T01:33:43.834Z,4.83
2017-12-05T01:34:50.020Z,4.88
2017-12-05T01:35:56.166Z,4.94
2017-12-05T01:37:02.100Z,4.99
2017-12-05T01:38:08.195Z,5.01
2017-12-05T01:39:14.287Z,5.00
2017-12-05T01:40:20.491Z,4.99
2017-12-05T01:41:25.945Z,4.97
2017-12-05T01:42:31.880Z,4.99
2017-12-05T01:43:37.452Z,5.04
2017-12-05T01:44:43.582Z,5.04
2017-12-05T01:45:49.740Z,5.02
2017-12-05T01:46:55.861Z,5.06
2017-12-05T01:48:05.985Z,5.04
2017-12-05T01:49:12.090Z,5.05
2017-12-05T01:50:17.896Z,5.00
2017-12-05T01:51:24.082Z,5.01
2017-12-05T01:52:30.288Z,5.05
2017-12-05T01:53:35.928Z,5.02
2017-12-05T01:54:42.075Z,4.95
2017-12-05T01:55:48.079Z,4.89
2017-12-05T01:56:54.214Z,4.88
2017-12-05T01:58:00.037Z,4.94
2017-12-05T01:59:05.327Z,4.99
2017-12-05T02:00:10.962Z,4.98
2017-12-05T02:01:16.159Z,4.99
2017-12-05T02:02:21.955Z,5.05
2017-12-05T02:03:27.795Z,5.00
2017-12-05T02:04:33.456Z,4.94
2017-12-05T02:05:39.451Z,4.93
2017-12-05T02:06:44.832Z,4.95
2017-12-05T02:07:50.293Z,4.95
2017-12-05T02:08:55.804Z,4.96
2017-12-05T02:10:01.684Z,4.99
2017-12-05T02:11:07.365Z,5.04
2017-12-05T02:12:13.202Z,5.02
2017-12-05T02:13:18.978Z,5.03
2017-12-05T02:14:24.481Z,5.06
2017-12-05T02:15:30.632Z,5.06
2017-12-05T02:16:39.697Z,5.11
2017-12-05T02:17:45.640Z,5.10
2017-12-05T02:18:51.773Z,5.10
2017-12-05T02:19:57.952Z,5.06
2017-12-05T02:21:03.047Z,5.09
2017-12-05T02:22:08.089Z,5.18
2017-12-05T02:23:14.112Z,5.11
2017-12-05T02:24:20.268Z,5.10
2017-12-05T02:25:26.412Z,5.01
2017-12-05T02:26:32.639Z,5.06
2017-12-05T02:27:38.762Z,5.03
2017-12-05T02:28:44.916Z,5.07
2017-12-05T02:29:51.115Z,5.05
2017-12-05T02:30:57.234Z,5.08
2017-12-05T02:32:03.423Z,5.06
2017-12-05T02:33:10.454Z,5.03
2017-12-05T02:34:16.585Z,5.02
2017-12-05T02:35:22.842Z,4.99
2017-12-05T02:36:29.205Z,4.98
2017-12-05T02:37:35.339Z,4.99
2017-12-05T02:38:41.447Z,5.08
2017-12-05T02:39:47.807Z,5.09
2017-12-05T02:41:16.094Z,5.09
2017-12-05T02:42:23.151Z,5.12
2017-12-05T02:43:28.608Z,5.07
2017-12-05T02:44:34.707Z,4.98
2017-12-05T02:45:40.271Z,5.02
2017-12-05T02:46:45.698Z,5.09
2017-12-05T02:47:51.563Z,5.11
2017-12-05T02:48:56.961Z,5.14
2017-12-05T02:50:02.379Z,5.10
2017-12-05T02:51:08.299Z,5.02
2017-12-05T02:52:13.719Z,5.12
2017-12-05T02:53:19.011Z,5.04
2017-12-05T02:54:27.469Z,5.09
2017-12-05T02:55:32.916Z,5.10
2017-12-05T02:56:38.727Z,5.09
2017-12-05T02:57:44.222Z,5.15
2017-12-05T02:58:49.690Z,5.16
2017-12-05T02:59:55.111Z,5.20
2017-12-05T03:01:00.403Z,5.26
2017-12-05T03:02:06.021Z,5.27
2017-12-05T03:03:11.663Z,5.25
2017-12-05T03:04:16.906Z,5.23
2017-12-05T03:05:22.162Z,5.23
2017-12-05T03:06:27.757Z,5.26
2017-12-05T03:07:33.520Z,5.19
2017-12-05T03:08:39.292Z,5.18
2017-12-05T03:09:44.494Z,5.18
2017-12-05T03:10:50.326Z,5.19
2017-12-05T03:11:55.826Z,5.16
2017-12-05T03:13:01.310Z,5.28
2017-12-05T03:14:07.104Z,5.28
2017-12-05T03:15:12.845Z,5.26
2017-12-05T03:16:18.105Z,5.25
2017-12-05T03:17:24.343Z,5.25
2017-12-05T03:18:29.797Z,5.32
2017-12-05T03:19:35.570Z,5.38
2017-12-05T03:20:41.335Z,5.43
2017-12-05T03:21:47.262Z,5.41
2017-12-05T03:22:53.024Z,5.36
2017-12-05T03:23:59.181Z,5.33
2017-12-05T03:25:10.143Z,5.34
2017-12-05T03:26:16.313Z,5.36
2017-12-05T03:27:22.442Z,5.33
2017-12-05T03:28:28.541Z,5.35
2017-12-05T03:29:34.665Z,5.32
2017-12-05T03:30:40.808Z,5.36
2017-12-05T03:31:46.920Z,5.37
2017-12-05T03:32:57.757Z,5.36
2017-12-05T03:34:03.766Z,5.36
2017-12-05T03:35:19.766Z,5.38
2017-12-05T03:36:25.900Z,5.35
2017-12-05T03:37:32.061Z,5.36
2017-12-05T03:38:38.554Z,5.40
2017-12-05T03:39:45.442Z,5.38
2017-12-05T03:40:51.595Z,5.41
2017-12-05T03:41:57.686Z,5.48
2017-12-05T03:43:03.872Z,5.54
2017-12-05T03:44:09.987Z,5.54
2017-12-05T03:45:16.110Z,5.55
2017-12-05T03:46:24.050Z,5.59
2017-12-05T03:47:31.096Z,5.58
2017-12-05T03:48:37.219Z,5.61
2017-12-05T03:49:43.333Z,5.64
2017-12-05T03:50:49.286Z,5.62
2017-12-05T03:51:55.378Z,5.64
2017-12-05T03:53:02.088Z,5.62
2017-12-05T03:54:11.138Z,5.60
2017-12-05T03:55:17.226Z,5.59
2017-12-05T03:56:23.351Z,5.58
2017-12-05T03:57:29.520Z,5.54
2017-12-05T03:58:35.422Z,5.51
2017-12-05T03:59:41.563Z,5.54
2017-12-05T04:00:47.690Z,5.60
2017-12-05T04:01:53.611Z,5.63
2017-12-05T04:02:59.720Z,5.65
2017-12-05T04:04:05.852Z,5.68
2017-12-05T04:05:11.775Z,5.67
2017-12-05T04:06:17.889Z,5.69
2017-12-05T04:07:24.002Z,5.69
2017-12-05T04:08:30.102Z,5.70
2017-12-05T04:09:36.216Z,5.73
2017-12-05T04:10:42.316Z,5.70
2017-12-05T04:11:48.464Z,5.68
2017-12-05T04:12:54.577Z,5.77
2017-12-05T04:14:00.683Z,5.74
2017-12-05T04:15:06.791Z,5.68
2017-12-05T04:16:19.043Z,5.79
2017-12-05T04:17:25.155Z,5.73
2017-12-05T04:18:31.268Z,5.78
2017-12-05T04:19:37.352Z,5.78
2017-12-05T04:20:43.490Z,5.79
2017-12-05T04:21:49.658Z,5.75
2017-12-05T04:22:55.792Z,5.75
2017-12-05T04:24:02.051Z,5.67
2017-12-05T04:25:08.255Z,5.75
2017-12-05T04:26:14.383Z,5.70
2017-12-05T04:27:20.514Z,5.70
2017-12-05T04:28:26.649Z,5.72
2017-12-05T04:29:32.785Z,5.74
2017-12-05T04:30:38.938Z,5.74
2017-12-05T04:31:45.036Z,5.78
2017-12-05T04:32:51.121Z,5.80
2017-12-05T04:33:56.570Z,5.75
2017-12-05T04:35:02.699Z,5.72
2017-12-05T04:36:08.548Z,5.80
2017-12-05T04:37:14.586Z,5.81
2017-12-05T04:38:21.089Z,5.76
2017-12-05T04:39:27.170Z,5.73
2017-12-05T04:40:33.435Z,5.79
2017-12-05T04:41:39.236Z,5.83
2017-12-05T04:42:45.331Z,5.86
2017-12-05T04:43:51.455Z,5.88
2017-12-05T04:44:57.278Z,5.79
2017-12-05T04:46:03.379Z,5.71
2017-12-05T04:47:09.511Z,5.73
2017-12-05T04:48:16.231Z,5.75
2017-12-05T04:49:21.987Z,5.77
2017-12-05T04:50:28.144Z,5.83
2017-12-05T04:51:33.965Z,5.86
2017-12-05T04:52:39.701Z,5.83
2017-12-05T04:53:45.857Z,5.76
2017-12-05T04:54:51.820Z,5.72
2017-12-05T04:55:57.606Z,5.74
2017-12-05T04:57:02.878Z,5.78
2017-12-05T04:58:09.030Z,5.83
2017-12-05T04:59:15.255Z,5.81
2017-12-05T05:00:20.659Z,5.85
2017-12-05T05:01:26.253Z,5.85
2017-12-05T05:02:31.688Z,5.81
2017-12-05T05:03:37.468Z,5.77
2017-12-05T05:04:43.444Z,5.84
2017-12-05T05:05:49.543Z,5.86
2017-12-05T05:06:55.633Z,5.90
2017-12-05T05:08:01.768Z,5.90
2017-12-05T05:09:12.072Z,5.92
2017-12-05T05:10:18.206Z,5.93
2017-12-05T05:11:24.119Z,5.93
2017-12-05T05:12:30.010Z,5.87
2017-12-05T05:13:37.505Z,5.85
2017-12-05T05:14:44.225Z,5.85
2017-12-05T05:15:50.402Z,5.92
2017-12-05T05:16:56.388Z,5.90
2017-12-05T05:18:02.511Z,5.94
2017-12-05T05:19:08.469Z,5.93
2017-12-05T05:20:14.661Z,5.96
2017-12-05T05:21:20.276Z,5.92
2017-12-05T05:22:26.203Z,5.90
2017-12-05T05:23:32.113Z,5.91
2017-12-05T05:24:38.258Z,5.92
2017-12-05T05:25:44.349Z,5.90
2017-12-05T05:26:50.555Z,5.85
2017-12-05T05:27:56.306Z,5.88
2017-12-05T05:29:02.204Z,5.88
2017-12-05T05:30:07.903Z,5.86
2017-12-05T05:31:14.028Z,5.93
2017-12-05T05:32:20.113Z,5.90
2017-12-05T05:33:26.047Z,5.92
2017-12-05T05:34:32.542Z,5.95
2017-12-05T05:35:38.642Z,5.99
2017-12-05T05:36:44.706Z,5.97
2017-12-05T05:37:50.641Z,5.95
2017-12-05T05:38:56.738Z,5.91
2017-12-05T05:40:06.266Z,5.80
2017-12-05T05:41:12.499Z,5.79
2017-12-05T05:42:18.606Z,5.84
2017-12-05T05:43:24.556Z,5.78
2017-12-05T05:44:30.717Z,5.77
2017-12-05T05:45:36.691Z,5.87
2017-12-05T05:46:42.823Z,5.89
2017-12-05T05:47:48.934Z,5.92
2017-12-05T05:48:54.926Z,5.91
2017-12-05T05:50:01.081Z,5.90
2017-12-05T05:51:07.242Z,5.94
2017-12-05T05:52:13.344Z,5.95
2017-12-05T05:53:19.553Z,5.95
2017-12-05T05:54:25.637Z,5.99
2017-12-05T05:55:31.757Z,6.00
2017-12-05T05:56:37.948Z,6.01
2017-12-05T05:57:44.103Z,6.02
2017-12-05T05:58:50.275Z,6.03
2017-12-05T05:59:56.394Z,6.00
2017-12-05T06:01:02.505Z,6.04
2017-12-05T06:02:10.460Z,6.03
2017-12-05T06:03:16.384Z,5.93
2017-12-05T06:04:22.522Z,5.97
2017-12-05T06:05:28.512Z,5.97
2017-12-05T06:06:34.647Z,5.93
2017-12-05T06:07:40.922Z,5.99
2017-12-05T06:08:47.039Z,5.91
2017-12-05T06:09:53.138Z,5.89
2017-12-05T06:10:59.322Z,5.91
2017-12-05T06:12:05.475Z,5.94
2017-12-05T06:13:11.582Z,5.96
2017-12-05T06:14:17.678Z,5.99
2017-12-05T06:15:23.852Z,5.97
2017-12-05T06:16:29.952Z,5.93
2017-12-05T06:17:36.041Z,5.98
2017-12-05T06:18:42.191Z,6.01
2017-12-05T06:19:52.194Z,6.02
2017-12-05T06:21:01.232Z,5.98
2017-12-05T06:22:07.350Z,6.04
2017-12-05T06:23:13.446Z,6.04
2017-12-05T06:24:19.631Z,6.05
2017-12-05T06:25:25.781Z,6.06
2017-12-05T06:26:31.912Z,6.09
2017-12-05T06:27:38.054Z,6.08
2017-12-05T06:28:44.216Z,6.02
2017-12-05T06:29:50.313Z,6.04
2017-12-05T06:30:56.410Z,6.06
2017-12-05T06:32:02.571Z,6.07
2017-12-05T06:33:08.724Z,6.01
2017-12-05T06:34:14.882Z,6.04
2017-12-05T06:35:21.069Z,6.04
2017-12-05T06:36:27.174Z,6.05
2017-12-05T06:37:33.111Z,6.09
2017-12-05T06:38:39.843Z,6.12
2017-12-05T06:39:45.984Z,6.15
2017-12-05T06:40:52.083Z,6.08
2017-12-05T06:41:58.034Z,6.07
2017-12-05T06:43:04.223Z,6.10
2017-12-05T06:44:10.417Z,6.08
2017-12-05T06:45:16.327Z,6.05
2017-12-05T06:46:22.338Z,6.03
2017-12-05T06:47:28.240Z,6.05
2017-12-05T06:48:34.359Z,6.07
2017-12-05T06:49:40.173Z,6.07
2017-12-05T06:50:45.613Z,6.08
2017-12-05T06:51:51.068Z,6.07
2017-12-05T06:52:56.343Z,6.05
2017-12-05T06:54:01.765Z,6.09
2017-12-05T06:55:07.013Z,6.14
2017-12-05T06:56:13.486Z,6.14
2017-12-05T06:57:18.768Z,6.15
2017-12-05T06:58:24.058Z,6.12
2017-12-05T06:59:29.290Z,6.14
2017-12-05T07:00:34.712Z,6.15
2017-12-05T07:01:39.917Z,6.12
2017-12-05T07:02:45.721Z,6.07
2017-12-05T07:03:51.206Z,6.06
2017-12-05T07:04:56.664Z,6.10
2017-12-05T07:06:02.076Z,6.19
2017-12-05T07:07:07.587Z,6.17
2017-12-05T07:08:13.481Z,6.15
2017-12-05T07:09:19.281Z,6.16
2017-12-05T07:10:24.694Z,6.14
2017-12-05T07:11:35.032Z,6.14
2017-12-05T07:12:40.660Z,6.11
2017-12-05T07:13:49.169Z,6.09
2017-12-05T07:14:54.599Z,6.07
2017-12-05T07:16:00.046Z,6.09
2017-12-05T07:17:05.581Z,6.12
2017-12-05T07:18:11.364Z,6.17
2017-12-05T07:19:16.813Z,6.23
2017-12-05T07:20:22.291Z,6.18
2017-12-05T07:21:35.968Z,6.23
2017-12-05T07:22:42.050Z,6.32
2017-12-05T07:23:47.544Z,6.33
2017-12-05T07:24:53.123Z,6.31
2017-12-05T07:25:58.422Z,6.29
2017-12-05T07:27:04.008Z,6.22
2017-12-05T07:28:09.535Z,6.16
2017-12-05T07:29:15.009Z,6.16
2017-12-05T07:30:20.446Z,6.08
2017-12-05T07:31:26.195Z,6.18
2017-12-05T07:32:31.636Z,6.22
2017-12-05T07:33:37.069Z,6.20
2017-12-05T07:34:42.548Z,6.19
2017-12-05T07:35:48.067Z,6.19
2017-12-05T07:36:53.630Z,6.17
2017-12-05T07:37:59.072Z,6.19
2017-12-05T07:39:04.544Z,6.18
2017-12-05T07:40:10.522Z,6.17
2017-12-05T07:41:15.938Z,6.18
2017-12-05T07:42:21.389Z,6.22
2017-12-05T07:43:26.847Z,6.22
2017-12-05T07:44:32.660Z,6.22
2017-12-05T07:45:38.162Z,6.24
2017-12-05T07:46:43.809Z,6.24
2017-12-05T07:47:49.543Z,6.24
2017-12-05T07:48:55.040Z,6.25
2017-12-05T07:50:00.832Z,6.21
2017-12-05T07:51:06.273Z,6.22
2017-12-05T07:52:11.540Z,6.23
2017-12-05T07:53:16.779Z,6.30
2017-12-05T07:54:22.699Z,6.27
2017-12-05T07:55:27.916Z,6.31
2017-12-05T07:56:33.438Z,6.36
2017-12-05T07:57:39.669Z,6.36
2017-12-05T07:58:45.755Z,6.35
2017-12-05T07:59:51.677Z,6.43
2017-12-05T08:00:57.189Z,6.45
2017-12-05T08:02:02.963Z,6.42
2017-12-05T08:03:09.171Z,6.35
2017-12-05T08:04:14.656Z,6.32
2017-12-05T08:05:20.120Z,6.37
2017-12-05T08:06:25.397Z,6.30
2017-12-05T08:07:30.462Z,6.33
2017-12-05T08:08:35.980Z,6.36
2017-12-05T08:09:41.274Z,6.43
2017-12-05T08:10:46.714Z,6.46
2017-12-05T08:11:52.316Z,6.41
2017-12-05T08:12:57.778Z,6.39
2017-12-05T08:14:03.223Z,6.39
2017-12-05T08:15:08.667Z,6.40
2017-12-05T08:16:13.945Z,6.43
2017-12-05T08:17:19.494Z,6.46
2017-12-05T08:18:24.706Z,6.47
2017-12-05T08:19:30.122Z,6.43
2017-12-05T08:20:35.568Z,6.55
2017-12-05T08:21:41.131Z,6.47
2017-12-05T08:22:46.675Z,6.46
2017-12-05T08:23:52.090Z,6.43
2017-12-05T08:24:57.338Z,6.46
2017-12-05T08:26:02.632Z,6.48
2017-12-05T08:27:08.106Z,6.47
2017-12-05T08:28:13.439Z,6.54
2017-12-05T08:29:19.022Z,6.50
2017-12-05T08:30:24.437Z,6.45
2017-12-05T08:31:29.669Z,6.52
2017-12-05T08:32:35.094Z,6.49
2017-12-05T08:33:40.580Z,6.48
2017-12-05T08:34:46.030Z,6.49
2017-12-05T08:35:51.473Z,6.56
2017-12-05T08:36:56.829Z,6.58
2017-12-05T08:38:02.374Z,6.57
2017-12-05T08:39:07.870Z,6.59
2017-12-05T08:40:13.341Z,6.65
2017-12-05T08:41:18.775Z,6.67
2017-12-05T08:42:24.268Z,6.61
2017-12-05T08:43:30.066Z,6.65
2017-12-05T08:44:35.824Z,6.68
2017-12-05T08:45:41.461Z,6.69
2017-12-05T08:46:46.955Z,6.66
2017-12-05T08:47:52.759Z,6.63
2017-12-05T08:48:58.002Z,6.73
2017-12-05T08:50:03.762Z,6.74
2017-12-05T08:51:09.222Z,6.73
2017-12-05T08:52:14.654Z,6.71
2017-12-05T08:53:20.103Z,6.70
2017-12-05T08:54:25.526Z,6.67
2017-12-05T08:55:30.766Z,6.72
2017-12-05T08:56:39.375Z,6.74
2017-12-05T08:57:45.171Z,6.72
2017-12-05T08:58:50.612Z,6.69
2017-12-05T08:59:56.050Z,6.74
2017-12-05T09:01:01.544Z,6.79
2017-12-05T09:02:06.998Z,6.81
2017-12-05T09:03:13.126Z,6.86
2017-12-05T09:04:19.398Z,6.88
2017-12-05T09:05:24.894Z,6.83
2017-12-05T09:06:30.455Z,6.87
2017-12-05T09:07:35.672Z,6.94
2017-12-05T09:08:41.136Z,6.94
2017-12-05T09:09:46.623Z,6.92
2017-12-05T09:10:52.859Z,6.84
2017-12-05T09:11:58.677Z,6.85
2017-12-05T09:13:04.168Z,6.88
2017-12-05T09:14:09.955Z,6.84
2017-12-05T09:15:15.416Z,6.89
2017-12-05T09:16:21.799Z,6.83
2017-12-05T09:17:29.006Z,6.85
2017-12-05T09:18:35.227Z,6.83
2017-12-05T09:19:42.474Z,6.83
2017-12-05T09:20:49.013Z,6.88
2017-12-05T09:22:02.333Z,6.88
2017-12-05T09:23:08.953Z,6.92
2017-12-05T09:24:15.417Z,6.90
2017-12-05T09:25:22.008Z,7.00
2017-12-05T09:26:28.734Z,7.02
2017-12-05T09:27:34.891Z,7.07
2017-12-05T09:28:40.569Z,7.11
2017-12-05T09:29:45.796Z,7.11
2017-12-05T09:30:51.222Z,7.14
2017-12-05T09:32:03.050Z,7.16
2017-12-05T09:33:08.553Z,7.14
2017-12-05T09:34:14.042Z,7.14
2017-12-05T09:35:20.424Z,7.15
2017-12-05T09:36:30.098Z,7.11
2017-12-05T09:37:35.633Z,7.16
2017-12-05T09:38:40.864Z,7.14
2017-12-05T09:39:46.390Z,7.13
2017-12-05T09:40:51.856Z,7.14
2017-12-05T09:41:57.323Z,7.14
2017-12-05T09:43:02.766Z,7.14
2017-12-05T09:44:08.245Z,7.12
2017-12-05T09:45:13.547Z,7.12
2017-12-05T09:46:18.987Z,7.23
2017-12-05T09:47:24.410Z,7.23
2017-12-05T09:48:35.960Z,7.19
2017-12-05T09:49:41.484Z,7.20
2017-12-05T09:50:46.901Z,7.22
2017-12-05T09:51:52.194Z,7.23
2017-12-05T09:52:57.997Z,7.25
2017-12-05T09:54:03.402Z,7.23
2017-12-05T09:55:09.177Z,7.23
2017-12-05T09:56:14.584Z,7.21
2017-12-05T09:57:20.086Z,7.29
2017-12-05T09:58:25.546Z,7.21
2017-12-05T09:59:30.791Z,7.19
2017-12-05T10:00:37.204Z,7.24
2017-12-05T10:01:42.497Z,7.27
2017-12-05T10:02:47.919Z,7.26
2017-12-05T10:03:53.361Z,7.19
2017-12-05T10:04:58.703Z,7.19
2017-12-05T10:06:04.134Z,7.26
2017-12-05T10:07:09.607Z,7.25
2017-12-05T10:08:15.024Z,7.31
2017-12-05T10:09:20.511Z,7.30
2017-12-05T10:10:25.940Z,7.29
2017-12-05T10:11:31.377Z,7.29
2017-12-05T10:12:37.191Z,7.26
2017-12-05T10:13:42.456Z,7.33
2017-12-05T10:14:48.868Z,7.41
2017-12-05T10:15:54.371Z,7.38
2017-12-05T10:16:59.861Z,7.40
2017-12-05T10:18:05.330Z,7.37
2017-12-05T10:19:10.571Z,7.38
2017-12-05T10:20:16.098Z,7.35
2017-12-05T10:21:21.374Z,7.41
2017-12-05T10:22:26.871Z,7.49
2017-12-05T10:23:32.099Z,7.40
2017-12-05T10:24:37.543Z,7.39
2017-12-05T10:25:42.832Z,7.36
2017-12-05T10:26:48.066Z,7.37
2017-12-05T10:27:53.520Z,7.39
2017-12-05T10:28:58.999Z,7.40
2017-12-05T10:30:04.415Z,7.35
2017-12-05T10:31:09.940Z,7.27
2017-12-05T10:32:15.773Z,7.37
2017-12-05T10:33:21.196Z,7.39
2017-12-05T10:34:26.645Z,7.36
2017-12-05T10:35:32.038Z,7.38
2017-12-05T10:36:37.453Z,7.39
2017-12-05T10:37:42.887Z,7.32
2017-12-05T10:38:53.658Z,7.23
2017-12-05T10:39:59.169Z,7.21
2017-12-05T10:41:04.641Z,7.17
2017-12-05T10:42:09.924Z,7.17
2017-12-05T10:43:15.439Z,7.02
2017-12-05T10:44:20.732Z,7.06
2017-12-05T10:45:25.977Z,7.09
2017-12-05T10:46:31.497Z,7.12
2017-12-05T10:47:36.926Z,7.10
2017-12-05T10:48:42.227Z,7.01
2017-12-05T10:49:47.438Z,7.01
2017-12-05T10:50:52.649Z,7.06
2017-12-05T10:51:58.124Z,7.04
2017-12-05T10:53:03.543Z,7.00
2017-12-05T10:54:08.975Z,6.93
2017-12-05T10:55:14.234Z,6.97
2017-12-05T10:56:19.500Z,7.01
2017-12-05T10:57:25.130Z,6.93
2017-12-05T10:58:31.101Z,6.95
2017-12-05T10:59:36.569Z,6.79
2017-12-05T11:00:42.433Z,6.86
2017-12-05T11:01:48.023Z,6.83
2017-12-05T11:02:54.148Z,6.83
2017-12-05T11:04:00.010Z,6.81
2017-12-05T11:05:05.816Z,6.86
2017-12-05T11:06:12.534Z,6.83
2017-12-05T11:07:18.660Z,6.85
2017-12-05T11:08:24.441Z,6.84
2017-12-05T11:09:30.259Z,6.88
2017-12-05T11:10:36.384Z,6.95
2017-12-05T11:11:41.631Z,7.03
2017-12-05T11:12:47.389Z,7.00
2017-12-05T11:13:53.382Z,6.99
2017-12-05T11:14:58.871Z,6.87
2017-12-05T11:16:04.321Z,6.88
2017-12-05T11:17:10.089Z,6.93
2017-12-05T11:18:16.242Z,6.97
2017-12-05T11:19:22.414Z,6.98
2017-12-05T11:20:27.989Z,6.94
2017-12-05T11:21:33.285Z,6.99
2017-12-05T11:22:39.109Z,7.05
2017-12-05T11:23:45.938Z,6.99
2017-12-05T11:24:51.901Z,7.02
2017-12-05T11:25:57.816Z,7.06
2017-12-05T11:27:03.393Z,7.16
2017-12-05T11:28:12.031Z,7.09
2017-12-05T11:29:17.708Z,7.05
2017-12-05T11:30:27.801Z,7.05
2017-12-05T11:31:33.910Z,7.09
2017-12-05T11:32:40.019Z,7.08
2017-12-05T11:33:45.602Z,7.11
2017-12-05T11:34:51.778Z,6.99
2017-12-05T11:35:57.510Z,7.03
2017-12-05T11:37:03.320Z,7.06
2017-12-05T11:38:09.165Z,7.15
2017-12-05T11:39:15.349Z,7.09
2017-12-05T11:40:21.504Z,7.08
2017-12-05T11:41:27.615Z,7.10
2017-12-05T11:42:33.540Z,7.03
2017-12-05T11:43:39.686Z,7.02
2017-12-05T11:44:45.876Z,6.98
2017-12-05T11:45:51.620Z,7.00
2017-12-05T11:46:57.635Z,6.97
2017-12-05T11:48:03.153Z,6.97
2017-12-05T11:49:09.098Z,7.09
2017-12-05T11:50:14.896Z,7.02
2017-12-05T11:51:28.896Z,7.02
2017-12-05T11:52:35.033Z,7.01
2017-12-05T11:53:41.119Z,7.00
2017-12-05T11:54:46.155Z,6.96
2017-12-05T11:55:52.326Z,7.00
2017-12-05T11:56:58.265Z,7.03
2017-12-05T11:58:04.059Z,7.07
2017-12-05T11:59:09.547Z,7.05
2017-12-05T12:00:14.791Z,7.02
2017-12-05T12:01:20.738Z,7.07
2017-12-05T12:02:26.917Z,6.96
2017-12-05T12:03:33.068Z,6.95
2017-12-05T12:04:38.815Z,6.97
2017-12-05T12:05:44.307Z,6.93
2017-12-05T12:06:53.421Z,7.03
2017-12-05T12:07:59.434Z,7.06
2017-12-05T12:09:06.856Z,6.99
2017-12-05T12:10:13.507Z,6.97
2017-12-05T12:11:19.663Z,6.94
2017-12-05T12:12:26.171Z,6.93
2017-12-05T12:13:32.272Z,6.96
2017-12-05T12:14:38.454Z,6.89
2017-12-05T12:15:44.587Z,6.95
2017-12-05T12:16:50.706Z,6.93
2017-12-05T12:17:56.722Z,6.93
2017-12-05T12:19:02.885Z,6.93
2017-12-05T12:20:09.053Z,6.92
2017-12-05T12:21:15.193Z,6.89
2017-12-05T12:22:21.347Z,6.97
2017-12-05T12:23:27.494Z,6.90
2017-12-05T12:24:33.324Z,6.90
2017-12-05T12:25:39.095Z,6.91
2017-12-05T12:26:45.202Z,6.91
2017-12-05T12:27:51.453Z,6.80
2017-12-05T12:28:58.345Z,6.85
2017-12-05T12:30:04.462Z,6.81
2017-12-05T12:31:10.610Z,6.73
2017-12-05T12:32:16.774Z,6.66
2017-12-05T12:33:22.926Z,6.73
2017-12-05T12:34:29.084Z,6.69
2017-12-05T12:35:35.277Z,6.65
2017-12-05T12:36:41.543Z,6.69
2017-12-05T12:37:47.691Z,6.67
2017-12-05T12:38:53.814Z,6.66
2017-12-05T12:39:59.926Z,6.72
2017-12-05T12:41:05.961Z,6.75
2017-12-05T12:42:12.075Z,6.72
2017-12-05T12:43:18.198Z,6.74
2017-12-05T12:44:23.983Z,6.68
2017-12-05T12:45:30.145Z,6.68
2017-12-05T12:46:37.317Z,6.73
2017-12-05T12:47:43.439Z,6.79
2017-12-05T12:48:50.161Z,6.71
2017-12-05T12:49:57.597Z,6.78
2017-12-05T12:51:05.027Z,6.82
2017-12-05T12:52:12.292Z,6.77
2017-12-05T12:53:18.881Z,6.67
2017-12-05T12:54:25.375Z,6.67
2017-12-05T12:55:31.310Z,6.72
2017-12-05T12:56:37.433Z,6.71
2017-12-05T12:57:45.890Z,6.68
2017-12-05T12:58:53.844Z,6.62
2017-12-05T13:00:01.337Z,6.63
2017-12-05T13:01:08.760Z,6.61
2017-12-05T13:02:15.123Z,6.60
2017-12-05T13:03:21.666Z,6.64
2017-12-05T13:04:28.229Z,6.62
2017-12-05T13:05:35.165Z,6.62
2017-12-05T13:06:41.730Z,6.55
2017-12-05T13:07:47.838Z,6.59
2017-12-05T13:08:54.019Z,6.65
2017-12-05T13:10:00.233Z,6.67
2017-12-05T13:11:06.424Z,6.60
2017-12-05T13:12:12.509Z,6.54
2017-12-05T13:13:18.711Z,6.53
2017-12-05T13:14:24.825Z,6.49
2017-12-05T13:15:30.941Z,6.52
2017-12-05T13:16:37.061Z,6.55
2017-12-05T13:17:46.180Z,6.45
2017-12-05T13:18:52.336Z,6.44
2017-12-05T13:19:58.541Z,6.45
2017-12-05T13:21:04.708Z,6.49
2017-12-05T13:22:10.888Z,6.53
2017-12-05T13:23:16.711Z,6.50
2017-12-05T13:24:22.884Z,6.48
2017-12-05T13:25:29.067Z,6.49
2017-12-05T13:26:35.200Z,6.54
2017-12-05T13:27:41.348Z,6.52
2017-12-05T13:28:47.205Z,6.53
2017-12-05T13:29:53.359Z,6.49
2017-12-05T13:30:59.541Z,6.55
2017-12-05T13:32:05.784Z,6.56
2017-12-05T13:33:12.109Z,6.56
2017-12-05T13:34:17.873Z,6.60
2017-12-05T13:35:24.953Z,6.55
2017-12-05T13:36:33.028Z,6.60
2017-12-05T13:37:40.272Z,6.66
2017-12-05T13:38:47.423Z,6.64
2017-12-05T13:39:54.209Z,6.72
2017-12-05T13:41:01.696Z,6.72
2017-12-05T13:42:09.327Z,6.61
2017-12-05T13:43:16.155Z,6.56
2017-12-05T13:44:23.254Z,6.58
2017-12-05T13:45:29.766Z,6.62
2017-12-05T13:46:36.277Z,6.65
2017-12-05T13:47:42.703Z,6.63
2017-12-05T13:48:49.255Z,6.63
2017-12-05T13:49:55.619Z,6.58
2017-12-05T13:51:02.384Z,6.50
2017-12-05T13:52:08.894Z,6.50
2017-12-05T13:53:15.863Z,6.50
2017-12-05T13:54:21.981Z,6.56
2017-12-05T13:55:28.165Z,6.61
2017-12-05T13:56:35.609Z,6.67
2017-12-05T13:57:43.555Z,6.65
2017-12-05T13:58:51.002Z,6.63
2017-12-05T13:59:58.456Z,6.67
2017-12-05T14:01:05.870Z,6.66
2017-12-05T14:02:13.738Z,6.59
2017-12-05T14:03:21.579Z,6.60
2017-12-05T14:04:28.360Z,6.61
2017-12-05T14:05:35.597Z,6.57
2017-12-05T14:06:42.544Z,6.59
2017-12-05T14:07:50.267Z,6.60
2017-12-05T14:08:57.392Z,6.54
2017-12-05T14:10:04.373Z,6.52
2017-12-05T14:11:11.341Z,6.51
2017-12-05T14:12:18.239Z,6.46
2017-12-05T14:13:26.534Z,6.49
2017-12-05T14:14:33.297Z,6.53
2017-12-05T14:15:39.649Z,6.56
2017-12-05T14:16:45.833Z,6.50
2017-12-05T14:17:53.445Z,6.49
2017-12-05T14:18:59.371Z,6.52
2017-12-05T14:20:05.370Z,6.55
2017-12-05T14:21:11.290Z,6.51
2017-12-05T14:22:17.436Z,6.45
2017-12-05T14:23:24.390Z,6.45
2017-12-05T14:24:29.990Z,6.53
2017-12-05T14:25:35.966Z,6.59
2017-12-05T14:26:41.885Z,6.55
2017-12-05T14:27:47.788Z,6.55
2017-12-05T14:28:54.335Z,6.50
2017-12-05T14:30:00.117Z,6.55
2017-12-05T14:31:06.077Z,6.57
2017-12-05T14:32:12.307Z,6.57
2017-12-05T14:33:18.054Z,6.53
2017-12-05T14:34:24.195Z,6.50
2017-12-05T14:35:32.314Z,6.53
2017-12-05T14:36:38.503Z,6.46
2017-12-05T14:37:44.751Z,6.57
2017-12-05T14:38:50.540Z,6.65
2017-12-05T14:39:56.759Z,6.64
2017-12-05T14:41:03.156Z,6.54